Tropical Cyclones
[Index]
Main Index Home Page Stock Weather Photos Extreme Storms Discussion Storm News and Storm Chasing Reports Tropical Cyclones / Hurricanes / Typhoons Weather Data and Links Wild Fires / Bushfires Weather Observation Techniques Weather Picture Catalogue Tornado Pictures and Reports Stock Video Footage and DVDs for sale
Season 1996-1997 Tropical Cyclone FREDA Track Map
Season 1996-1997 Summaries: [BoM-AU] [JTWC-AU] [JTWC-SIO] [JTWC-SPAC] [JTWC-SH]
<<- Previous TC | JTWC 1996-1997 Season | Next TC ->>

click for intensity scale information  Lat/long Grid: Show Hide

 Date Labels: Show Hide

Joint Typhoon Warning Centre Cyclone Data

Name: FREDA

20 Jan 1997 12:00 UTC to 03 Feb 1997 00:00 UTC

    date/time    lat    long     hPa   cat  kts
1997-01-20 12   15.9   172.0                  15          
1997-01-20 18   16.1   172.1                  15          
1997-01-21 00   16.3   172.2                  15          
1997-01-21 06   16.5   172.2                  15          
1997-01-21 12   16.8   172.2                  15          
1997-01-21 18   17.0   172.2                  15          
1997-01-22 00   17.3   172.2                  20          
1997-01-22 06   17.6   172.1                  20          
1997-01-22 12   17.9   171.9                  20          
1997-01-22 18   18.1   171.7                  20          
1997-01-23 00   18.3   171.5                  20          
1997-01-23 06   18.5   171.3                  25          
1997-01-23 12   18.8   171.1                  25          
1997-01-23 18   19.2   170.9                  25          
1997-01-24 00   19.6   170.9                  25          
1997-01-24 06   19.8   171.0                  25          
1997-01-24 12   19.9   171.1                  25          
1997-01-24 18   20.0   171.3                  25          
1997-01-25 00   20.2   171.7                  25          
1997-01-25 06   20.4   172.4                  25          
1997-01-25 12   20.6   173.1                  25          
1997-01-25 18   20.8   173.8                  30          
1997-01-26 00   21.0   174.5                  35          
1997-01-26 06   21.4   175.2            1     45          
1997-01-26 12   21.8   175.8            1     45          
1997-01-26 18   22.4   176.1            1     45          
1997-01-27 00   23.1   176.3            2     55          
1997-01-27 06   23.8   176.5            2     65          
1997-01-27 12   24.5   176.7            2     65          
1997-01-27 18   25.1   177.0            2     65          
1997-01-28 00   25.7   177.3            2     65          
1997-01-28 06   26.1   177.6            2     65          
1997-01-28 12   26.3   177.9            2     65          
1997-01-28 18   26.4   178.2            2     65          
1997-01-29 00   26.5   178.7            2     65          
1997-01-29 06   26.5   179.5            2     60          
1997-01-29 12   26.6   179.4W           2     60          
1997-01-29 18   27.2   178.6W           2     60          
1997-01-30 00   27.8   178.5W           2     55          
1997-01-30 06   28.2   178.6W           2     55          
1997-01-30 12   28.4   178.8W           2     55          
1997-01-30 18   28.5   179.1W           2     55          
1997-01-31 00   28.5   179.3W           1     50          
1997-01-31 06   28.6   179.4W           1     50          
1997-01-31 12   28.7   179.2W           1     50          
1997-01-31 18   28.9   178.9W           1     45          
1997-02-01 00   29.1   178.5W           1     40          
1997-02-01 06   29.5   177.9W           1     40          
1997-02-01 12   30.1   177.0W                 35          
1997-02-01 18   31.1   176.6W                 35          
1997-02-02 00   32.3   176.4W                 35          
1997-02-02 06   33.4   175.7W                 35          
1997-02-02 12   34.4   174.7W                 35          
1997-02-02 18   35.6   173.9W                 35          
1997-02-03 00   37.1   173.1W                 35          
Winds are 1-min average.

Tropical cyclone tracks developed by Michael Bath using data from the Joint Typhoon Warning Centre Best Tracks and Google Maps.


[Australian Severe Weather index] [Copyright Notice] [Email Contacts] [Search This Site] [Privacy Policy]
Document: tropical_cyclone_freda.htm Updated: 18 September 2016